createdAt,value
2018-08-23T00:01:27.858Z,59.96
2018-08-23T00:04:02.565Z,60.81
2018-08-23T00:06:32.980Z,60.73
2018-08-23T00:09:02.597Z,60.96
2018-08-23T00:11:34.957Z,60.80
2018-08-23T00:14:04.609Z,60.92
2018-08-23T00:16:39.110Z,60.26
2018-08-23T00:19:08.903Z,60.42
2018-08-23T00:21:46.138Z,60.83
2018-08-23T00:24:18.177Z,60.97
2018-08-23T00:26:51.071Z,61.07
2018-08-23T00:29:25.995Z,60.41
2018-08-23T00:31:59.904Z,61.14
2018-08-23T00:34:30.895Z,60.44
2018-08-23T00:37:01.022Z,61.39
2018-08-23T00:39:31.101Z,61.67
2018-08-23T00:42:07.080Z,61.24
2018-08-23T00:44:59.107Z,61.17
2018-08-23T00:47:30.664Z,61.28
2018-08-23T00:50:00.575Z,62.20
2018-08-23T00:52:41.615Z,62.61
2018-08-23T00:55:25.160Z,62.12
2018-08-23T00:57:54.748Z,62.44
2018-08-23T01:00:25.706Z,61.64
2018-08-23T01:03:02.578Z,62.80
2018-08-23T01:05:38.156Z,61.97
2018-08-23T01:08:09.324Z,62.86
2018-08-23T01:10:39.938Z,62.17
2018-08-23T01:13:09.574Z,62.51
2018-08-23T01:15:39.424Z,63.75
2018-08-23T01:18:14.319Z,63.42
2018-08-23T01:20:44.605Z,62.72
2018-08-23T01:23:14.302Z,62.83
2018-08-23T01:25:45.362Z,63.77
2018-08-23T01:28:15.075Z,63.46
2018-08-23T01:30:45.502Z,62.49
2018-08-23T01:33:18.069Z,62.46
2018-08-23T01:35:48.694Z,62.05
2018-08-23T01:38:19.214Z,62.81
2018-08-23T01:40:48.802Z,63.40
2018-08-23T01:43:18.651Z,64.59
2018-08-23T01:45:48.231Z,63.55
2018-08-23T01:48:17.864Z,63.88
2018-08-23T01:50:47.430Z,63.68
2018-08-23T01:53:19.513Z,63.74
2018-08-23T01:55:49.127Z,64.84
2018-08-23T01:58:18.740Z,64.52
2018-08-23T02:00:56.386Z,64.24
2018-08-23T02:03:25.918Z,65.02
2018-08-23T02:05:55.507Z,64.22
2018-08-23T02:08:25.121Z,64.79
2018-08-23T02:10:54.739Z,64.07
2018-08-23T02:13:28.460Z,65.71
2018-08-23T02:16:02.728Z,65.27
2018-08-23T02:18:33.043Z,65.86
2018-08-23T02:21:07.853Z,64.64
2018-08-23T02:23:47.632Z,64.27
2018-08-23T02:26:17.247Z,64.23
2018-08-23T02:28:49.962Z,64.07
2018-08-23T02:31:19.988Z,64.62
2018-08-23T02:33:49.510Z,64.93
2018-08-23T02:36:19.225Z,65.26
2018-08-23T02:38:51.767Z,64.95
2018-08-23T02:41:21.309Z,64.51
2018-08-23T02:43:51.057Z,65.27
2018-08-23T02:46:20.618Z,64.84
2018-08-23T02:48:52.623Z,65.12
2018-08-23T02:51:38.181Z,65.21
2018-08-23T02:54:11.239Z,66.29
2018-08-23T02:56:44.032Z,65.41
2018-08-23T02:59:13.641Z,65.63
2018-08-23T03:01:48.573Z,65.25
2018-08-23T03:04:24.106Z,65.85
2018-08-23T03:07:04.248Z,65.70
2018-08-23T03:09:39.956Z,64.54
2018-08-23T03:12:11.144Z,63.91
2018-08-23T03:14:41.809Z,65.22
2018-08-23T03:17:25.420Z,65.38
2018-08-23T03:20:15.381Z,66.05
2018-08-23T03:22:46.154Z,66.02
2018-08-23T03:25:19.228Z,66.19
2018-08-23T03:27:48.734Z,65.78
2018-08-23T03:30:19.242Z,65.83
2018-08-23T03:32:48.767Z,65.28
2018-08-23T03:35:18.356Z,66.19
2018-08-23T03:37:47.882Z,65.41
2018-08-23T03:40:18.043Z,66.66
2018-08-23T03:42:47.520Z,67.27
2018-08-23T03:45:22.298Z,66.53
2018-08-23T03:47:53.160Z,67.18
2018-08-23T03:50:23.686Z,67.78
2018-08-23T03:52:54.722Z,68.03
2018-08-23T03:55:26.270Z,68.15
2018-08-23T03:58:01.703Z,67.33
2018-08-23T04:00:36.712Z,67.45
2018-08-23T04:03:10.157Z,67.59
2018-08-23T04:05:39.711Z,66.65
2018-08-23T04:08:09.265Z,66.92
2018-08-23T04:10:38.937Z,66.85
2018-08-23T04:13:08.537Z,67.24
2018-08-23T04:15:38.031Z,68.10
2018-08-23T04:18:13.215Z,68.34
2018-08-23T04:20:56.341Z,67.73
2018-08-23T04:23:26.020Z,67.20
2018-08-23T04:25:55.643Z,67.10
2018-08-23T04:28:25.245Z,67.42
2018-08-23T04:30:54.781Z,67.96
2018-08-23T04:33:24.419Z,67.62
2018-08-23T04:35:54.155Z,67.26
2018-08-23T04:38:24.012Z,68.01
2018-08-23T04:40:58.767Z,66.99
2018-08-23T04:43:28.463Z,67.46
2018-08-23T04:45:58.210Z,67.10
2018-08-23T04:48:27.779Z,68.42
2018-08-23T04:50:57.310Z,68.34
2018-08-23T04:53:26.860Z,68.26
2018-08-23T04:55:56.609Z,67.33
2018-08-23T04:58:26.145Z,68.31
2018-08-23T05:00:55.712Z,68.29
2018-08-23T05:03:25.481Z,67.45
2018-08-23T05:05:55.036Z,67.86
2018-08-23T05:08:24.562Z,67.44
2018-08-23T05:10:54.263Z,67.54
2018-08-23T05:13:24.052Z,67.52
2018-08-23T05:15:53.751Z,67.53
2018-08-23T05:18:23.312Z,68.03
2018-08-23T05:20:52.913Z,68.04
2018-08-23T05:23:22.581Z,68.79
2018-08-23T05:25:56.996Z,68.20
2018-08-23T05:28:26.581Z,68.65
2018-08-23T05:30:56.150Z,68.84
2018-08-23T05:33:25.794Z,67.78
2018-08-23T05:35:55.370Z,69.22
2018-08-23T05:38:25.277Z,68.13
2018-08-23T05:41:00.678Z,68.64
2018-08-23T05:43:30.287Z,69.01
2018-08-23T05:46:00.255Z,68.31
2018-08-23T05:48:30.006Z,67.90
2018-08-23T05:51:15.171Z,68.66
2018-08-23T05:53:46.944Z,68.92
2018-08-23T05:56:18.627Z,68.33
2018-08-23T05:58:48.378Z,67.65
2018-08-23T06:01:22.021Z,67.65
2018-08-23T06:03:51.739Z,67.74
2018-08-23T06:06:21.606Z,67.54
2018-08-23T06:08:55.657Z,68.17
2018-08-23T06:11:25.497Z,68.06
2018-08-23T06:13:55.200Z,68.31
2018-08-23T06:16:24.795Z,67.27
2018-08-23T06:18:54.337Z,67.82
2018-08-23T06:21:23.869Z,66.79
2018-08-23T06:23:54.422Z,66.57
2018-08-23T06:26:40.119Z,67.34
2018-08-23T06:29:11.756Z,66.05
2018-08-23T06:31:57.868Z,65.16
2018-08-23T06:34:29.601Z,65.85
2018-08-23T06:36:59.640Z,65.35
2018-08-23T06:39:29.299Z,65.21
2018-08-23T06:42:00.477Z,65.19
2018-08-23T06:44:47.473Z,63.76
2018-08-23T06:47:20.543Z,64.29
2018-08-23T06:49:51.333Z,64.05
2018-08-23T06:53:01.447Z,64.20
2018-08-23T06:55:35.856Z,64.03
2018-08-23T06:58:06.482Z,62.45
2018-08-23T07:00:36.403Z,63.17
2018-08-23T07:03:06.101Z,62.23
2018-08-23T07:05:35.950Z,63.33
2018-08-23T07:08:05.965Z,62.45
2018-08-23T07:10:35.607Z,62.30
2018-08-23T07:13:05.414Z,62.50
2018-08-23T07:15:34.933Z,61.81
2018-08-23T07:18:09.006Z,61.74
2018-08-23T07:20:38.634Z,62.84
2018-08-23T07:23:24.122Z,62.87
2018-08-23T07:25:53.910Z,62.47
2018-08-23T07:28:23.534Z,62.99
2018-08-23T07:30:55.862Z,61.97
2018-08-23T07:33:25.861Z,61.87
2018-08-23T07:36:17.557Z,62.11
2018-08-23T07:38:49.955Z,60.64
2018-08-23T07:41:21.274Z,60.44
2018-08-23T07:43:50.885Z,60.79
2018-08-23T07:46:20.918Z,60.40
2018-08-23T07:48:50.525Z,58.86
2018-08-23T07:51:24.696Z,58.14
2018-08-23T07:53:57.646Z,57.17
2018-08-23T07:56:28.504Z,56.09
2018-08-23T07:58:58.385Z,55.87
2018-08-23T08:01:30.413Z,55.71
2018-08-23T08:04:00.910Z,54.35
2018-08-23T08:06:30.481Z,55.57
2018-08-23T08:09:01.132Z,54.20
2018-08-23T08:11:49.534Z,54.11
2018-08-23T08:14:25.834Z,54.40
2018-08-23T08:16:59.504Z,54.23
2018-08-23T08:19:29.873Z,53.15
2018-08-23T08:21:59.821Z,54.37
2018-08-23T08:24:29.730Z,54.06
2018-08-23T08:26:59.311Z,53.79
2018-08-23T08:29:34.386Z,52.83
2018-08-23T08:32:04.333Z,53.00
2018-08-23T08:34:33.887Z,51.45
2018-08-23T08:37:03.443Z,52.04
2018-08-23T08:39:33.288Z,50.67
2018-08-23T08:42:03.195Z,51.54
2018-08-23T08:44:32.912Z,50.69
2018-08-23T08:47:02.458Z,50.25
2018-08-23T08:49:43.663Z,50.68
2018-08-23T08:52:13.635Z,48.80
2018-08-23T08:54:43.259Z,49.08
2018-08-23T08:57:12.959Z,48.22
2018-08-23T08:59:43.601Z,48.46
2018-08-23T09:02:13.241Z,48.00
2018-08-23T09:04:43.006Z,47.18
2018-08-23T09:07:12.754Z,47.11
2018-08-23T09:09:44.668Z,47.22
2018-08-23T09:12:20.418Z,46.63
2018-08-23T09:14:50.821Z,46.13
2018-08-23T09:17:44.273Z,46.65
2018-08-23T09:20:19.226Z,46.72
2018-08-23T09:22:49.983Z,45.76
2018-08-23T09:25:42.730Z,46.08
2018-08-23T09:28:12.563Z,46.42
2018-08-23T09:30:42.556Z,46.10
2018-08-23T09:33:16.178Z,45.97
2018-08-23T09:35:45.715Z,44.70
2018-08-23T09:38:16.108Z,44.41
2018-08-23T09:40:45.657Z,45.43
2018-08-23T09:43:15.240Z,44.90
2018-08-23T09:45:44.871Z,45.03
2018-08-23T09:48:14.471Z,43.13
2018-08-23T09:50:44.374Z,43.24
2018-08-23T09:53:19.886Z,43.19
2018-08-23T09:55:51.426Z,43.28
2018-08-23T09:58:27.570Z,43.41
2018-08-23T10:01:02.685Z,42.93
2018-08-23T10:03:38.788Z,43.40
2018-08-23T10:06:13.896Z,41.80
2018-08-23T10:08:48.739Z,41.24
2018-08-23T10:11:23.698Z,42.69
2018-08-23T10:13:58.669Z,41.39
2018-08-23T10:16:33.405Z,40.61
2018-08-23T10:19:08.517Z,41.51
2018-08-23T10:21:46.713Z,40.35
2018-08-23T10:24:21.498Z,41.17
2018-08-23T10:26:51.362Z,40.87
2018-08-23T10:29:21.289Z,40.15
2018-08-23T10:31:50.826Z,40.61
2018-08-23T10:34:20.715Z,39.85
2018-08-23T10:36:50.254Z,40.75
2018-08-23T10:39:19.788Z,41.46
2018-08-23T10:41:49.970Z,41.52
2018-08-23T10:44:19.620Z,40.82
2018-08-23T10:46:54.367Z,42.47
2018-08-23T10:49:24.076Z,41.92
2018-08-23T10:51:53.694Z,42.68
2018-08-23T10:54:23.487Z,43.29
2018-08-23T10:56:53.373Z,42.46
2018-08-23T10:59:23.044Z,42.63
2018-08-23T11:01:52.759Z,41.61
2018-08-23T11:04:22.354Z,42.78
2018-08-23T11:06:57.254Z,43.02
2018-08-23T11:09:32.483Z,43.94
2018-08-23T11:12:02.080Z,43.08
2018-08-23T11:14:36.717Z,43.30
2018-08-23T11:17:11.954Z,44.24
2018-08-23T11:19:46.733Z,44.03
2018-08-23T11:22:16.258Z,44.37
2018-08-23T11:24:45.789Z,42.75
2018-08-23T11:27:15.407Z,42.55
2018-08-23T11:29:45.091Z,43.55
2018-08-23T11:32:14.711Z,42.24
2018-08-23T11:34:44.257Z,42.94
2018-08-23T11:37:14.008Z,43.44
2018-08-23T11:39:46.698Z,42.36
2018-08-23T11:42:16.206Z,42.13
2018-08-23T11:44:45.850Z,42.61
2018-08-23T11:47:15.427Z,42.74
2018-08-23T11:49:44.990Z,42.51
2018-08-23T11:52:14.603Z,43.30
2018-08-23T11:54:44.552Z,41.83
2018-08-23T11:57:14.124Z,41.54
2018-08-23T11:59:44.058Z,42.59
2018-08-23T12:02:13.702Z,42.17
2018-08-23T12:04:43.626Z,42.11
2018-08-23T12:07:16.834Z,43.10
2018-08-23T12:09:46.414Z,42.90
2018-08-23T12:12:16.602Z,42.96
2018-08-23T12:14:49.406Z,42.88
2018-08-23T12:17:19.009Z,44.10
2018-08-23T12:20:03.689Z,43.29
2018-08-23T12:22:38.538Z,43.47
2018-08-23T12:25:08.259Z,43.19
2018-08-23T12:27:38.425Z,42.46
2018-08-23T12:30:08.712Z,43.48
2018-08-23T12:32:38.807Z,42.41
2018-08-23T12:35:08.972Z,41.80
2018-08-23T12:37:43.730Z,41.48
2018-08-23T12:40:18.782Z,41.37
2018-08-23T12:42:50.078Z,41.93
2018-08-23T12:45:20.143Z,40.81
2018-08-23T12:47:50.052Z,40.61
2018-08-23T12:50:19.838Z,40.81
2018-08-23T12:52:51.361Z,40.18
2018-08-23T12:55:21.007Z,40.24
2018-08-23T12:57:50.593Z,39.65
2018-08-23T13:00:20.877Z,40.02
2018-08-23T13:02:50.492Z,40.01
2018-08-23T13:05:20.341Z,40.11
2018-08-23T13:07:50.036Z,39.22
2018-08-23T13:10:19.776Z,40.63
2018-08-23T13:12:49.414Z,39.64
2018-08-23T13:15:19.175Z,40.48
2018-08-23T13:17:48.730Z,41.10
2018-08-23T13:20:18.624Z,40.78
2018-08-23T13:22:48.233Z,40.48
2018-08-23T13:25:17.833Z,40.32
2018-08-23T13:27:47.377Z,40.06
2018-08-23T13:30:17.033Z,38.58
2018-08-23T13:32:46.811Z,39.15
2018-08-23T13:35:16.456Z,38.43
2018-08-23T13:37:46.693Z,37.51
2018-08-23T13:40:16.267Z,37.01
2018-08-23T13:42:46.630Z,38.34
2018-08-23T13:45:16.857Z,38.18
2018-08-23T13:47:46.856Z,39.32
2018-08-23T13:50:16.426Z,39.49
2018-08-23T13:52:46.198Z,39.75
2018-08-23T13:55:15.897Z,39.45
2018-08-23T13:57:45.418Z,40.15
2018-08-23T14:00:20.238Z,40.11
2018-08-23T14:02:49.983Z,39.72
2018-08-23T14:05:19.538Z,39.69
2018-08-23T14:07:49.193Z,41.28
2018-08-23T14:10:19.180Z,40.28
2018-08-23T14:12:49.018Z,41.18
2018-08-23T14:15:24.392Z,41.92
2018-08-23T14:17:54.026Z,42.88
2018-08-23T14:20:23.537Z,41.88
2018-08-23T14:22:53.077Z,42.91
2018-08-23T14:25:22.766Z,43.00
2018-08-23T14:27:52.306Z,42.62
2018-08-23T14:30:22.032Z,42.88
2018-08-23T14:32:51.903Z,42.31
2018-08-23T14:35:21.679Z,42.65
2018-08-23T14:37:51.248Z,42.99
2018-08-23T14:40:21.165Z,43.77
2018-08-23T14:42:51.050Z,43.29
2018-08-23T14:45:26.142Z,44.44
2018-08-23T14:48:00.882Z,43.08
2018-08-23T14:50:30.532Z,43.87
2018-08-23T14:53:00.046Z,43.18
2018-08-23T14:55:35.069Z,43.13
2018-08-23T14:58:04.879Z,43.13
2018-08-23T15:00:35.314Z,43.97
2018-08-23T15:03:04.854Z,43.68
2018-08-23T15:05:34.832Z,43.09
2018-08-23T15:08:04.403Z,43.86
2018-08-23T15:10:34.155Z,43.81
2018-08-23T15:13:03.853Z,44.62
2018-08-23T15:15:39.109Z,44.82
2018-08-23T15:18:08.727Z,43.50
2018-08-23T15:20:39.267Z,43.55
2018-08-23T15:23:11.504Z,43.38
2018-08-23T15:25:41.326Z,43.92
2018-08-23T15:28:10.968Z,44.45
2018-08-23T15:30:41.447Z,43.83
2018-08-23T15:33:11.191Z,43.95
2018-08-23T15:35:42.469Z,43.86
2018-08-23T15:38:16.167Z,43.28
2018-08-23T15:40:51.112Z,43.34
2018-08-23T15:43:25.557Z,44.20
2018-08-23T15:45:55.469Z,43.31
2018-08-23T15:48:30.709Z,44.21
2018-08-23T15:51:00.270Z,43.17
2018-08-23T15:53:30.894Z,42.92
2018-08-23T15:56:07.860Z,43.01
2018-08-23T15:58:38.711Z,43.11
2018-08-23T16:01:11.229Z,43.25
2018-08-23T16:03:43.355Z,43.14
2018-08-23T16:06:13.006Z,44.66
2018-08-23T16:08:48.181Z,43.89
2018-08-23T16:11:18.042Z,45.24
2018-08-23T16:13:48.939Z,43.85
2018-08-23T16:16:28.365Z,43.83
2018-08-23T16:21:10.991Z,45.58
2018-08-23T16:23:41.538Z,44.37
2018-08-23T16:26:11.328Z,44.76
2018-08-23T16:28:42.629Z,45.13
2018-08-23T16:31:14.525Z,45.88
2018-08-23T16:33:45.127Z,45.45
2018-08-23T16:36:15.432Z,45.92
2018-08-23T16:38:45.307Z,45.65
2018-08-23T16:41:14.876Z,45.60
2018-08-23T16:43:44.529Z,47.37
2018-08-23T16:46:14.157Z,46.77
2018-08-23T16:48:44.049Z,46.67
2018-08-23T16:51:13.730Z,47.70
2018-08-23T16:53:44.005Z,48.41
2018-08-23T16:56:14.119Z,48.76
2018-08-23T16:58:43.745Z,48.55
2018-08-23T17:01:13.943Z,49.08
2018-08-23T17:03:51.643Z,47.67
2018-08-23T17:06:23.017Z,47.85
2018-08-23T17:08:52.777Z,48.61
2018-08-23T17:11:22.399Z,48.44
2018-08-23T17:13:51.943Z,48.67
2018-08-23T17:16:29.177Z,48.48
2018-08-23T17:18:58.913Z,49.20
2018-08-23T17:21:28.485Z,49.51
2018-08-23T17:23:58.083Z,48.99
2018-08-23T17:26:27.851Z,49.41
2018-08-23T17:28:57.583Z,48.91
2018-08-23T17:31:27.167Z,48.96
2018-08-23T17:33:56.811Z,48.96
2018-08-23T17:36:27.132Z,49.51
2018-08-23T17:38:56.718Z,49.04
2018-08-23T17:41:26.526Z,49.40
2018-08-23T17:43:56.309Z,50.22
2018-08-23T17:46:25.921Z,49.46
2018-08-23T17:48:55.637Z,49.47
2018-08-23T17:51:25.444Z,50.70
2018-08-23T17:53:55.708Z,49.89
2018-08-23T17:56:25.653Z,49.48
2018-08-23T17:58:55.278Z,49.44
2018-08-23T18:01:24.966Z,49.79
2018-08-23T18:03:54.511Z,49.64
2018-08-23T18:06:24.219Z,51.13
2018-08-23T18:08:54.021Z,50.57
2018-08-23T18:11:23.779Z,51.66
2018-08-23T18:13:53.856Z,51.87
2018-08-23T18:16:28.787Z,50.92
2018-08-23T18:18:58.367Z,51.39
2018-08-23T18:21:28.036Z,52.08
2018-08-23T18:23:57.627Z,52.99
2018-08-23T18:26:27.202Z,53.11
2018-08-23T18:28:57.566Z,52.99
2018-08-23T18:31:27.114Z,52.33
2018-08-23T18:43:03.974Z,52.85
2018-08-23T18:45:33.945Z,52.77
2018-08-23T18:48:03.638Z,53.78
2018-08-23T18:50:33.193Z,52.45
2018-08-23T18:53:02.724Z,52.19
2018-08-23T18:55:32.410Z,53.58
2018-08-23T18:58:02.326Z,52.71
2018-08-23T19:00:32.194Z,53.23
2018-08-23T19:03:01.818Z,53.17
2018-08-23T19:05:31.482Z,53.10
2018-08-23T19:08:01.250Z,52.27
2018-08-23T19:10:30.960Z,52.15
2018-08-23T19:13:00.578Z,53.24
2018-08-23T19:15:35.596Z,52.32
2018-08-23T19:18:05.349Z,52.97
2018-08-23T19:20:34.981Z,53.55
2018-08-23T19:23:04.651Z,53.59
2018-08-23T19:25:34.134Z,53.64
2018-08-23T19:28:03.795Z,53.88
2018-08-23T19:30:33.458Z,53.08
2018-08-23T19:33:03.402Z,53.08
2018-08-23T19:35:32.918Z,52.69
2018-08-23T19:38:02.628Z,53.12
2018-08-23T19:40:32.597Z,53.21
2018-08-23T19:43:02.796Z,52.79
2018-08-23T19:45:44.004Z,52.46
2018-08-23T19:48:13.672Z,52.99
2018-08-23T19:50:43.486Z,52.61
2018-08-23T19:53:14.011Z,52.37
2018-08-23T19:55:43.950Z,52.84
2018-08-23T19:58:13.559Z,53.40
2018-08-23T20:00:43.602Z,52.68
2018-08-23T20:03:13.789Z,52.70
2018-08-23T20:05:48.133Z,52.94
2018-08-23T20:08:18.535Z,53.02
2018-08-23T20:10:48.477Z,53.07
2018-08-23T20:13:18.085Z,53.00
2018-08-23T20:15:49.958Z,53.76
2018-08-23T20:18:20.040Z,53.77
2018-08-23T20:20:55.730Z,54.21
2018-08-23T20:23:25.666Z,54.29
2018-08-23T20:25:55.462Z,54.01
2018-08-23T20:28:25.373Z,54.22
2018-08-23T20:30:55.300Z,54.77
2018-08-23T20:33:25.126Z,53.95
2018-08-23T20:35:54.683Z,54.87
2018-08-23T20:38:24.372Z,54.50
2018-08-23T20:40:53.906Z,55.13
2018-08-23T20:43:23.727Z,54.96
2018-08-23T20:45:53.399Z,55.31
2018-08-23T20:48:23.333Z,55.28
2018-08-23T20:50:54.768Z,54.74
2018-08-23T20:53:24.377Z,54.99
2018-08-23T20:55:54.016Z,55.17
2018-08-23T20:58:23.576Z,55.90
2018-08-23T21:00:53.121Z,55.49
2018-08-23T21:03:22.655Z,55.10
2018-08-23T21:05:52.132Z,55.38
2018-08-23T21:08:21.724Z,55.89
2018-08-23T21:10:51.383Z,55.37
2018-08-23T21:13:25.360Z,55.77
2018-08-23T21:15:54.918Z,55.56
2018-08-23T21:18:24.464Z,55.59
2018-08-23T21:20:53.961Z,56.11
2018-08-23T21:23:23.512Z,55.75
2018-08-23T21:25:53.005Z,56.62
2018-08-23T21:28:22.522Z,56.84
2018-08-23T21:30:52.373Z,56.40
2018-08-23T21:33:21.942Z,56.11
2018-08-23T21:35:51.474Z,56.92
2018-08-23T21:38:21.393Z,56.38
2018-08-23T21:40:51.173Z,56.21
2018-08-23T21:43:20.806Z,57.28
2018-08-23T21:45:50.389Z,56.04
2018-08-23T21:48:29.803Z,57.31
2018-08-23T21:50:59.754Z,56.33
2018-08-23T21:53:29.339Z,57.50
2018-08-23T21:55:59.069Z,56.06
2018-08-23T21:58:28.660Z,56.87
2018-08-23T22:01:09.731Z,57.11
2018-08-23T22:03:39.926Z,57.55
2018-08-23T22:06:09.499Z,57.66
2018-08-23T22:08:39.030Z,57.07
2018-08-23T22:11:11.469Z,57.72
2018-08-23T22:13:41.066Z,57.58
2018-08-23T22:16:11.122Z,57.74
2018-08-23T22:18:40.754Z,57.50
2018-08-23T22:21:10.303Z,56.62
2018-08-23T22:23:40.468Z,57.20
2018-08-23T22:26:10.021Z,57.42
2018-08-23T22:28:39.574Z,57.00
2018-08-23T22:31:09.420Z,57.02
2018-08-23T22:33:39.095Z,57.80
2018-08-23T22:36:08.586Z,56.45
2018-08-23T22:38:38.203Z,56.90
2018-08-23T22:41:07.692Z,56.76
2018-08-23T22:43:37.182Z,57.27
2018-08-23T22:46:06.725Z,57.13
2018-08-23T22:48:36.254Z,57.80
2018-08-23T22:51:06.493Z,56.87
2018-08-23T22:53:36.068Z,57.93
2018-08-23T22:56:05.820Z,57.57
2018-08-23T22:58:35.488Z,56.89
2018-08-23T23:01:05.037Z,58.12
2018-08-23T23:03:39.718Z,57.55
2018-08-23T23:06:09.285Z,57.14
2018-08-23T23:08:38.808Z,57.08
2018-08-23T23:11:08.901Z,57.82
2018-08-23T23:13:38.430Z,58.19
2018-08-23T23:16:07.950Z,57.50
2018-08-23T23:18:37.718Z,57.91
2018-08-23T23:21:07.269Z,58.24
2018-08-23T23:23:37.940Z,57.89
2018-08-23T23:26:07.941Z,58.38
2018-08-23T23:28:37.527Z,57.71
2018-08-23T23:31:07.074Z,58.69
2018-08-23T23:33:36.624Z,58.17
2018-08-23T23:36:06.239Z,58.32
2018-08-23T23:38:35.771Z,58.10
2018-08-23T23:41:05.615Z,58.43
2018-08-23T23:43:35.133Z,58.88
2018-08-23T23:46:04.635Z,59.24
2018-08-23T23:48:34.739Z,58.78
2018-08-23T23:51:04.883Z,59.18
2018-08-23T23:53:34.680Z,58.44
2018-08-23T23:56:04.613Z,58.64
2018-08-23T23:58:34.116Z,58.94
